Time;durP1;ratioP1;P1;durP2;ratioP2;P2;SDS_P1;SDS_P2;PMS_P1;PMS_P2;Temp;Humidity;BMP_temperature;BMP_pressure;BME280_temperature;BME280_humidity;BME280_pressure;Samples;Min_cycle;Max_cycle;Signal;HPM_P1;HPM_P2
2022/08/03 00:02:02;;;;;;;7.07;6.10;;;18.00;1.00;;;;;;4918659;29;20048;-90
2022/08/03 00:04:52;;;;;;;8.70;6.45;;;18.00;1.00;;;;;;4918557;29;20056;-90
2022/08/03 00:07:44;;;;;;;6.03;5.43;;;18.00;1.00;;;;;;4908129;29;20405;-90
2022/08/03 00:10:31;;;;;;;7.72;5.75;;;18.00;1.00;;;;;;4908110;29;20171;-91
2022/08/03 00:13:20;;;;;;;7.35;5.68;;;18.00;1.00;;;;;;4921608;29;20058;-91
2022/08/03 00:16:09;;;;;;;8.45;5.63;;;18.00;99.90;;;;;;4913594;29;20056;-89
2022/08/03 00:18:56;;;;;;;6.63;5.80;;;18.10;99.90;;;;;;4921737;29;20052;-88
2022/08/03 00:21:49;;;;;;;7.20;5.95;;;18.00;99.90;;;;;;4922170;29;20442;-89
2022/08/03 00:24:39;;;;;;;9.18;5.43;;;17.90;99.90;;;;;;4926382;29;20058;-91
2022/08/03 00:27:29;;;;;;;7.72;5.85;;;17.90;99.90;;;;;;4923543;29;20079;-89
2022/08/03 00:30:18;;;;;;;6.93;6.07;;;17.80;99.90;;;;;;4922185;29;20048;-88
2022/08/03 00:33:09;;;;;;;6.82;6.13;;;17.80;99.90;;;;;;4925798;29;20059;-88
2022/08/03 00:35:56;;;;;;;11.30;5.75;;;17.80;99.90;;;;;;4930699;29;20044;-88
2022/08/03 00:38:44;;;;;;;6.10;5.50;;;17.70;99.90;;;;;;4907412;29;20044;-88
2022/08/03 00:41:31;;;;;;;7.80;5.70;;;17.50;1.00;;;;;;4915413;29;20041;-89
2022/08/03 00:44:20;;;;;;;11.30;6.78;;;17.30;1.00;;;;;;4920723;29;20056;-89
2022/08/03 00:47:09;;;;;;;8.95;7.57;;;17.40;1.00;;;;;;4912901;29;20052;-89
2022/08/03 00:49:59;;;;;;;7.18;6.47;;;17.40;1.00;;;;;;4903852;29;20422;-89
2022/08/03 00:52:46;;;;;;;10.10;6.43;;;17.40;28.80;;;;;;4901721;29;20048;-90
2022/08/03 00:55:37;;;;;;;10.93;7.25;;;17.40;17.80;;;;;;4911007;29;20130;-91
2022/08/03 00:58:24;;;;;;;8.63;7.03;;;17.30;36.70;;;;;;4918773;29;20052;-91
2022/08/03 01:01:13;;;;;;;11.30;7.10;;;17.30;95.00;;;;;;4914034;29;20160;-91
2022/08/03 01:04:01;;;;;;;10.20;7.22;;;17.30;99.90;;;;;;4931286;28;20044;-91
2022/08/03 01:06:51;;;;;;;9.32;7.18;;;17.20;99.90;;;;;;4921930;29;20079;-89
2022/08/03 01:09:51;;;;;;;7.07;6.30;;;17.10;99.90;;;;;;4924298;29;20119;-90
2022/08/03 01:12:47;;;;;;;11.07;7.10;;;17.10;99.90;;;;;;4925504;29;20051;-91
2022/08/03 01:16:22;;;;;;;10.55;6.72;;;17.00;99.90;;;;;;4918965;29;20044;-89
2022/08/03 01:19:38;;;;;;;10.27;7.13;;;17.00;1.00;;;;;;4912532;29;20101;-91
2022/08/03 01:22:35;;;;;;;7.95;7.13;;;17.00;1.00;;;;;;4924799;29;20103;-91
2022/08/03 01:25:54;;;;;;;8.77;6.97;;;16.90;1.00;;;;;;4935811;29;20043;-89
2022/08/03 01:28:41;;;;;;;7.32;6.63;;;16.90;1.00;;;;;;4918814;29;20059;-88
2022/08/03 01:31:35;;;;;;;10.23;6.45;;;16.90;1.00;;;;;;4911741;29;20514;-89
2022/08/03 01:34:59;;;;;;;8.75;6.18;;;16.80;1.00;;;;;;4933742;29;20533;-89
2022/08/03 01:37:59;;;;;;;13.07;7.68;;;16.80;69.70;;;;;;4934606;29;20044;-89
2022/08/03 01:40:47;;;;;;;7.18;6.47;;;16.80;99.90;;;;;;4937907;29;20048;-91
2022/08/03 01:43:40;;;;;;;7.93;6.68;;;16.70;99.90;;;;;;4949114;28;20068;-82
2022/08/03 01:46:50;;;;;;;11.25;7.28;;;16.70;1.00;;;;;;5247932;23;20054;-88
2022/08/03 01:49:43;;;;;;;9.13;6.18;;;16.50;99.90;;;;;;4956092;28;20087;-90
2022/08/03 01:52:32;;;;;;;7.47;6.78;;;16.50;1.00;;;;;;4953889;29;20043;-88
2022/08/03 01:55:22;;;;;;;7.75;6.90;;;16.60;1.00;;;;;;4946103;29;20039;-89
2022/08/03 01:58:12;;;;;;;8.55;7.55;;;16.70;10.80;;;;;;4943185;29;20044;-90
2022/08/03 02:01:01;;;;;;;9.93;6.65;;;16.70;69.00;;;;;;4957038;29;20048;-90
2022/08/03 02:03:53;;;;;;;9.07;6.53;;;16.70;1.00;;;;;;4931497;29;20044;-90
2022/08/03 02:06:48;;;;;;;11.15;6.40;;;16.70;99.90;;;;;;4936244;29;20059;-91
2022/08/03 02:09:51;;;;;;;9.65;7.10;;;16.70;99.90;;;;;;4950710;29;20054;-90
2022/08/03 02:12:41;;;;;;;8.88;6.68;;;16.70;99.90;;;;;;4926777;29;20090;-90
2022/08/03 02:15:35;;;;;;;9.52;6.55;;;16.60;99.90;;;;;;4927508;29;20067;-91
2022/08/03 02:18:24;;;;;;;10.90;6.38;;;16.60;99.90;;;;;;4940914;29;20131;-90
2022/08/03 02:21:13;;;;;;;8.23;6.75;;;16.60;99.90;;;;;;4939528;29;20048;-90
2022/08/03 02:24:21;;;;;;;7.18;6.45;;;16.70;99.90;;;;;;4929509;29;20099;-89
2022/08/03 02:27:21;;;;;;;9.32;7.05;;;16.60;1.00;;;;;;4937580;29;20059;-88
2022/08/03 02:30:10;;;;;;;9.00;7.18;;;16.60;1.00;;;;;;4929724;29;20048;-90
2022/08/03 02:33:00;;;;;;;7.60;6.82;;;16.60;1.00;;;;;;4939249;29;20484;-90
2022/08/03 02:35:49;;;;;;;8.93;6.82;;;16.60;1.00;;;;;;4939125;29;20082;-90
2022/08/03 02:38:44;;;;;;;235.10;23.77;;;16.50;1.00;;;;;;4938614;29;20425;-90
2022/08/03 02:41:44;;;;;;;12.60;7.82;;;16.50;1.00;;;;;;4938245;29;20040;-91
2022/08/03 02:44:33;;;;;;;11.05;7.63;;;16.60;1.00;;;;;;4937076;29;20048;-89
2022/08/03 02:47:22;;;;;;;8.52;7.07;;;16.50;1.00;;;;;;4914225;29;20111;-89
2022/08/03 02:50:15;;;;;;;8.73;7.03;;;16.50;1.00;;;;;;4921597;29;20055;-89
2022/08/03 02:53:03;;;;;;;;;;;16.50;1.00;;;;;;4931445;29;20043;-88
2022/08/03 02:55:55;;;;;;;9.85;6.72;;;16.50;99.90;;;;;;4940348;29;19923;-90
2022/08/03 02:58:48;;;;;;;9.60;6.85;;;16.40;99.90;;;;;;4929905;29;20130;-91
2022/08/03 03:01:36;;;;;;;9.00;6.70;;;16.40;99.90;;;;;;4935676;29;20055;-92
2022/08/03 03:04:24;;;;;;;8.02;7.00;;;16.40;99.90;;;;;;4938952;29;20429;-89
2022/08/03 03:07:19;;;;;;;7.80;6.15;;;16.30;99.90;;;;;;4933470;29;20055;-91
2022/08/03 03:10:11;;;;;;;7.03;6.32;;;16.30;99.90;;;;;;4939543;29;20079;-91
2022/08/03 03:12:59;;;;;;;9.52;6.82;;;16.20;99.90;;;;;;4938516;29;20055;-89
2022/08/03 03:15:47;;;;;;;7.28;6.57;;;16.10;99.90;;;;;;4920992;29;20051;-89
2022/08/03 03:18:39;;;;;;;8.40;7.22;;;16.00;1.00;;;;;;4938408;29;20058;-90
2022/08/03 03:21:27;;;;;;;9.93;7.53;;;15.90;99.90;;;;;;4938433;29;20106;-90
2022/08/03 03:24:17;;;;;;;8.25;6.88;;;15.90;94.20;;;;;;4935193;29;20058;-89
2022/08/03 03:27:10;;;;;;;9.48;7.15;;;15.90;1.00;;;;;;4933339;29;20522;-90
2022/08/03 03:30:06;;;;;;;7.80;6.25;;;15.90;99.90;;;;;;4923624;29;20067;-90
2022/08/03 03:32:54;;;;;;;10.27;7.07;;;15.90;99.90;;;;;;4938973;29;20121;-90
2022/08/03 03:35:44;;;;;;;8.80;6.85;;;15.80;99.90;;;;;;4937961;29;20048;-89
2022/08/03 03:38:32;;;;;;;10.05;7.63;;;15.90;1.00;;;;;;4937002;29;20051;-91
2022/08/03 03:41:19;;;;;;;8.90;7.07;;;15.90;99.90;;;;;;4933692;29;20075;-90
2022/08/03 03:44:09;;;;;;;8.98;7.75;;;15.90;99.90;;;;;;4931664;29;20527;-89
2022/08/03 03:46:59;;;;;;;8.30;7.13;;;15.90;99.90;;;;;;4931200;29;20048;-90
2022/08/03 03:49:47;;;;;;;12.75;7.47;;;15.80;99.90;;;;;;4935830;29;20114;-90
2022/08/03 03:52:35;;;;;;;9.43;7.13;;;15.80;99.90;;;;;;4937247;29;20047;-90
2022/08/03 03:55:22;;;;;;;14.82;7.63;;;15.80;99.90;;;;;;4939136;29;20055;-90
2022/08/03 03:58:10;;;;;;;8.25;7.03;;;15.70;99.90;;;;;;4934357;29;20079;-90
2022/08/03 04:00:57;;;;;;;8.70;6.90;;;15.60;99.90;;;;;;4936053;29;20043;-88
2022/08/03 04:03:45;;;;;;;14.18;7.93;;;15.60;1.00;;;;;;4946568;29;20062;-89
2022/08/03 04:13:08;;;;;;;8.15;6.70;;;15.70;1.00;;;;;;4933735;29;20047;-90
2022/08/03 04:15:57;;;;;;;7.88;7.00;;;15.80;99.90;;;;;;4936914;29;20075;-90
2022/08/03 04:18:49;;;;;;;8.90;7.30;;;15.80;99.90;;;;;;4932602;29;20106;-90
2022/08/03 04:21:42;;;;;;;8.27;7.13;;;15.80;99.90;;;;;;4941331;29;20370;-90
2022/08/03 04:24:33;;;;;;;8.82;7.32;;;15.80;44.40;;;;;;4954471;28;20048;-89
2022/08/03 04:27:24;;;;;;;9.77;7.32;;;15.80;99.90;;;;;;4939117;29;20122;-90
2022/08/03 04:30:17;;;;;;;9.38;7.28;;;15.80;62.70;;;;;;4930225;29;20354;-90
2022/08/03 04:33:06;;;;;;;10.32;6.85;;;15.80;13.90;;;;;;4937736;29;20055;-90
2022/08/03 04:36:00;;;;;;;9.43;7.07;;;15.80;99.90;;;;;;4944772;28;20069;-90
2022/08/03 04:39:07;;;;;;;10.50;7.78;;;15.80;1.00;;;;;;4934405;29;20044;-90
2022/08/03 04:42:01;;;;;;;11.30;7.32;;;15.80;99.90;;;;;;4939610;29;20099;-88
2022/08/03 04:45:12;;;;;;;9.48;6.65;;;15.90;1.00;;;;;;4928506;29;20048;-89
2022/08/03 04:48:03;;;;;;;9.52;7.65;;;16.00;45.50;;;;;;4934763;29;20138;-90
2022/08/03 04:50:52;;;;;;;7.78;6.95;;;16.10;1.00;;;;;;4935063;29;20051;-87
2022/08/03 04:53:41;;;;;;;8.63;6.78;;;16.20;99.90;;;;;;4942614;29;20070;-88
2022/08/03 04:56:29;;;;;;;9.70;6.72;;;16.30;99.90;;;;;;4940362;29;20322;-88
2022/08/03 04:59:16;;;;;;;8.10;6.90;;;16.40;28.90;;;;;;4930844;29;20130;-91
2022/08/03 05:02:03;;;;;;;9.07;6.78;;;16.40;1.00;;;;;;4946794;28;20361;-88
2022/08/03 05:04:53;;;;;;;10.27;6.80;;;16.50;1.00;;;;;;4945327;29;20370;-91
2022/08/03 05:07:41;;;;;;;7.70;6.60;;;16.60;1.00;;;;;;4935117;29;20047;-88
2022/08/03 05:10:28;;;;;;;9.77;6.63;;;16.60;99.90;;;;;;4939890;29;20123;-89
2022/08/03 05:13:15;;;;;;;12.00;6.80;;;16.70;99.90;;;;;;4942255;29;20048;-89
2022/08/03 05:16:02;;;;;;;10.32;6.10;;;16.80;99.90;;;;;;4948729;29;20361;-87
2022/08/03 05:18:50;;;;;;;7.97;6.03;;;17.00;99.90;;;;;;4937578;29;20111;-87
2022/08/03 05:21:39;;;;;;;12.95;5.90;;;17.00;99.90;;;;;;4949387;29;20055;-87
2022/08/03 05:24:40;;;;;;;8.60;6.70;;;17.20;99.90;;;;;;4944162;29;20041;-86
2022/08/03 05:27:28;;;;;;;10.18;6.40;;;17.20;83.40;;;;;;4953582;28;20064;-82
2022/08/03 05:30:15;;;;;;;7.55;5.90;;;17.30;43.20;;;;;;4961589;28;20059;-87
2022/08/03 05:33:20;;;;;;;9.00;6.38;;;17.40;9.90;;;;;;4956132;29;20079;-89
2022/08/03 05:36:07;;;;;;;6.03;5.43;;;17.50;1.00;;;;;;4955153;29;20044;-87
2022/08/03 05:38:54;;;;;;;6.07;5.43;;;17.70;1.00;;;;;;4943626;29;20043;-89
2022/08/03 05:41:46;;;;;;;8.07;5.88;;;17.90;1.00;;;;;;4946958;29;20044;-89
2022/08/03 05:44:37;;;;;;;6.93;5.55;;;18.00;99.90;;;;;;4943804;29;20055;-88
2022/08/03 05:47:24;;;;;;;6.53;5.32;;;18.10;99.90;;;;;;4943385;29;20522;-89
2022/08/03 05:50:13;;;;;;;6.03;5.43;;;18.30;99.90;;;;;;4951210;29;20055;-88
2022/08/03 05:53:00;;;;;;;9.98;5.85;;;18.40;99.90;;;;;;4942987;29;20434;-88
2022/08/03 05:55:50;;;;;;;6.55;5.22;;;18.50;99.90;;;;;;4925177;29;20052;-89
2022/08/03 05:58:50;;;;;;;6.90;5.22;;;18.60;99.90;;;;;;4934885;29;20048;-90
2022/08/03 06:01:37;;;;;;;6.82;5.32;;;18.90;99.90;;;;;;4933014;29;20422;-89
2022/08/03 06:04:24;;;;;;;9.27;5.15;;;19.10;99.90;;;;;;4943898;29;20071;-88
2022/08/03 06:07:12;;;;;;;11.98;5.03;;;19.20;99.90;;;;;;4945109;29;20145;-89
2022/08/03 06:10:01;;;;;;;6.32;5.45;;;19.20;94.40;;;;;;4929205;29;20051;-86
2022/08/03 06:13:10;;;;;;;11.25;5.45;;;19.40;61.70;;;;;;4939735;29;20079;-86
2022/08/03 06:15:57;;;;;;;5.80;4.60;;;19.50;39.60;;;;;;4946057;29;20464;-88
2022/08/03 06:18:45;;;;;;;5.50;5.00;;;19.70;5.90;;;;;;4944602;29;20055;-88
2022/08/03 06:21:32;;;;;;;7.85;5.03;;;19.80;1.00;;;;;;4942101;29;20051;-88
2022/08/03 06:24:20;;;;;;;10.35;5.00;;;20.00;1.00;;;;;;4944184;29;20043;-89
2022/08/03 06:27:11;;;;;;;7.03;3.85;;;20.20;1.00;;;;;;4934952;29;20048;-88
2022/08/03 06:30:00;;;;;;;6.07;4.18;;;20.50;1.00;;;;;;4940688;29;20066;-89
2022/08/03 06:32:50;;;;;;;7.03;4.13;;;20.80;99.90;;;;;;4939054;29;20051;-89
2022/08/03 06:35:40;;;;;;;10.23;4.45;;;21.00;99.90;;;;;;4930722;29;20529;-88
2022/08/03 06:38:30;;;;;;;5.55;3.80;;;21.10;99.90;;;;;;4939555;29;20051;-87
2022/08/03 06:41:17;;;;;;;5.78;3.50;;;21.30;99.90;;;;;;4939784;29;20048;-87
2022/08/03 06:44:07;;;;;;;6.97;4.43;;;21.40;99.90;;;;;;4944986;28;20096;-88
2022/08/03 06:46:57;;;;;;;6.07;3.70;;;21.60;99.90;;;;;;4935847;29;20133;-88
2022/08/03 06:49:44;;;;;;;6.68;3.40;;;21.80;99.90;;;;;;4936437;29;20051;-88
2022/08/03 06:52:52;;;;;;;6.25;3.40;;;22.10;99.90;;;;;;4935608;29;20371;-88
2022/08/03 06:55:39;;;;;;;8.13;3.53;;;22.40;99.90;;;;;;4929763;29;20126;-88
2022/08/03 06:58:28;;;;;;;6.97;3.72;;;22.70;99.90;;;;;;4940934;29;20225;-87
2022/08/03 07:01:15;;;;;;;6.88;3.35;;;23.10;99.90;;;;;;4939712;29;20052;-85
2022/08/03 07:04:04;;;;;;;4.40;3.38;;;23.30;99.90;;;;;;4931573;29;20051;-87
2022/08/03 07:06:57;;;;;;;4.65;3.53;;;23.70;99.90;;;;;;4929365;29;20469;-87
2022/08/03 07:09:44;;;;;;;;;;;23.80;99.90;;;;;;4925062;29;20387;-87
2022/08/03 07:12:43;;;;;;;7.95;4.05;;;24.00;99.90;;;;;;4933675;29;20252;-86
2022/08/03 07:15:44;;;;;;;4.47;2.97;;;24.00;99.90;;;;;;4933986;29;20055;-88
2022/08/03 07:18:42;;;;;;;3.67;3.33;;;24.60;99.90;;;;;;4938280;29;20043;-88
2022/08/03 07:21:29;;;;;;;3.65;2.47;;;25.10;99.90;;;;;;4939121;29;20044;-88
2022/08/03 07:24:16;;;;;;;2.65;2.42;;;25.60;99.90;;;;;;4933951;29;20051;-90
2022/08/03 07:27:10;;;;;;;5.22;2.67;;;26.40;28.30;;;;;;4931789;29;20146;-85
2022/08/03 07:29:59;;;;;;;3.85;2.30;;;26.70;21.50;;;;;;4929114;29;20052;-86
2022/08/03 07:32:47;;;;;;;6.10;2.55;;;27.20;1.00;;;;;;4931103;29;20047;-87
2022/08/03 07:35:39;;;;;;;2.47;2.25;;;27.00;1.00;;;;;;4937326;29;20063;-87
2022/08/03 07:38:28;;;;;;;4.68;2.25;;;27.00;1.00;;;;;;4928338;29;20051;-87
2022/08/03 07:41:21;;;;;;;3.88;1.60;;;27.20;1.00;;;;;;4936766;29;20151;-85
2022/08/03 07:44:08;;;;;;;;;;;28.30;1.00;;;;;;4932095;29;20071;-86
2022/08/03 07:46:56;;;;;;;2.05;1.25;;;29.00;1.00;;;;;;4936671;29;19946;-88
2022/08/03 07:49:44;;;;;;;1.50;1.35;;;29.20;1.00;;;;;;4937315;29;20507;-90
2022/08/03 07:52:46;;;;;;;1.85;1.45;;;29.20;1.00;;;;;;4932978;29;20059;-89
2022/08/03 07:55:34;;;;;;;1.52;1.40;;;29.50;1.00;;;;;;4925480;29;20051;-89
2022/08/03 07:58:22;;;;;;;3.88;1.48;;;28.80;1.00;;;;;;4938541;29;20039;-90
2022/08/03 08:01:12;;;;;;;1.90;1.58;;;29.40;1.00;;;;;;4938455;29;20119;-89
2022/08/03 08:04:01;;;;;;;2.58;1.20;;;29.20;1.00;;;;;;4931829;29;20051;-89
2022/08/03 08:06:48;;;;;;;2.00;1.35;;;29.20;1.00;;;;;;4935682;29;20131;-87
2022/08/03 08:09:36;;;;;;;1.33;1.10;;;29.50;1.00;;;;;;4936113;29;20563;-87
2022/08/03 08:12:23;;;;;;;1.23;1.02;;;30.00;1.00;;;;;;4924742;29;20140;-88
2022/08/03 08:15:10;;;;;;;1.52;1.10;;;30.00;1.00;;;;;;4931485;29;20048;-88
2022/08/03 08:18:00;;;;;;;2.75;1.00;;;29.50;1.00;;;;;;4934734;29;20056;-87
2022/08/03 08:20:48;;;;;;;2.25;1.33;;;29.60;1.00;;;;;;4927862;29;20047;-89
2022/08/03 08:23:36;;;;;;;1.10;1.00;;;29.80;1.00;;;;;;4937809;29;20054;-90
2022/08/03 08:26:32;;;;;;;1.05;1.00;;;30.40;1.00;;;;;;4926375;29;20048;-84
2022/08/03 08:29:21;;;;;;;2.63;1.00;;;31.00;1.00;;;;;;4927595;29;20047;-86
2022/08/03 08:32:10;;;;;;;1.17;1.05;;;32.00;1.00;;;;;;4933744;29;20051;-91
2022/08/03 08:34:57;;;;;;;1.42;1.30;;;32.30;1.00;;;;;;4933532;29;20055;-87
2022/08/03 08:37:45;;;;;;;1.90;1.27;;;31.60;1.00;;;;;;4922836;29;20048;-90
2022/08/03 08:40:37;;;;;;;1.40;0.82;;;31.10;1.00;;;;;;4922205;29;20054;-83
2022/08/03 08:43:25;;;;;;;1.23;1.13;;;31.10;1.00;;;;;;4933802;29;20327;-85
2022/08/03 08:46:13;;;;;;;1.00;1.00;;;31.00;1.00;;;;;;4930808;29;20075;-85
2022/08/03 08:49:14;;;;;;;1.42;1.08;;;30.50;1.00;;;;;;4935252;28;20044;-90
2022/08/03 08:52:03;;;;;;;1.67;1.00;;;30.60;1.00;;;;;;4926342;29;20343;-87
2022/08/03 08:55:13;;;;;;;4.85;1.10;;;30.90;1.00;;;;;;4931663;29;20054;-89
2022/08/03 08:58:11;;;;;;;2.47;1.05;;;31.50;1.00;;;;;;4932681;29;20047;-88
2022/08/03 09:01:08;;;;;;;1.55;1.10;;;31.80;1.00;;;;;;4937611;29;20051;-87
2022/08/03 09:04:00;;;;;;;3.60;1.10;;;32.60;1.00;;;;;;4933301;29;20126;-87
2022/08/03 09:06:51;;;;;;;1.10;1.00;;;33.30;1.00;;;;;;4936424;29;20055;-85
2022/08/03 09:10:01;;;;;;;1.85;1.15;;;33.60;1.00;;;;;;4932925;29;20435;-89
2022/08/03 09:12:59;;;;;;;1.92;1.10;;;33.90;1.00;;;;;;4940034;29;20058;-89
2022/08/03 09:15:49;;;;;;;644.65;44.25;;;34.00;1.00;;;;;;4935587;29;20052;-91
2022/08/03 09:18:53;;;;;;;2.50;1.00;;;34.20;1.00;;;;;;4927019;29;20056;-84
2022/08/03 09:21:41;;;;;;;1.30;1.10;;;34.70;1.00;;;;;;4929863;29;20551;-89
2022/08/03 09:24:36;;;;;;;1.42;1.00;;;35.10;1.00;;;;;;4933825;29;20055;-89
2022/08/03 09:27:29;;;;;;;1.13;1.05;;;35.10;1.00;;;;;;4929793;29;20044;-90
2022/08/03 09:30:19;;;;;;;4.05;1.10;;;34.90;1.00;;;;;;4938294;29;20060;-91
2022/08/03 09:33:21;;;;;;;1.00;0.90;;;34.70;1.00;;;;;;4931914;29;20110;-89
2022/08/03 09:36:08;;;;;;;1.52;1.02;;;35.00;1.00;;;;;;4933270;29;20043;-88
2022/08/03 09:39:05;;;;;;;0.95;0.90;;;35.80;1.00;;;;;;4939062;29;20051;-90
2022/08/03 09:42:04;;;;;;;1.10;1.00;;;35.90;1.00;;;;;;4938416;29;20074;-88
2022/08/03 09:44:59;;;;;;;1.13;1.02;;;35.70;99.90;;;;;;4937271;29;20066;-91
2022/08/03 09:47:47;;;;;;;2.60;1.15;;;35.60;99.90;;;;;;4940333;29;20052;-87
2022/08/03 09:50:48;;;;;;;1.02;0.90;;;35.00;1.00;;;;;;4939959;29;20055;-89
2022/08/03 09:54:00;;;;;;;2.67;1.23;;;35.10;99.90;;;;;;4940902;29;20136;-89
2022/08/03 09:56:47;;;;;;;;;;;34.30;99.90;;;;;;4934031;29;20044;-91
2022/08/03 09:59:37;;;;;;;1.23;1.00;;;34.20;99.90;;;;;;4938629;29;20264;-85
2022/08/03 10:02:27;;;;;;;3.28;1.48;;;34.00;1.00;;;;;;4937968;29;20486;-88
2022/08/03 10:05:14;;;;;;;1.45;0.90;;;34.70;1.00;;;;;;4936796;29;20067;-86
2022/08/03 10:08:14;;;;;;;2.25;1.10;;;35.60;99.90;;;;;;4938520;29;20737;-88
2022/08/03 10:11:01;;;;;;;1.48;1.08;;;36.00;99.90;;;;;;4940197;29;20047;-90
2022/08/03 10:13:51;;;;;;;1.02;1.02;;;36.10;99.90;;;;;;4939038;29;20059;-86
2022/08/03 10:16:48;;;;;;;3.55;1.20;;;36.50;99.90;;;;;;4935314;29;20135;-85
2022/08/03 10:19:36;;;;;;;1.58;1.00;;;36.40;99.90;;;;;;4938305;29;20342;-88
2022/08/03 10:22:34;;;;;;;2.70;1.02;;;36.50;99.90;;;;;;4930720;29;20051;-91
2022/08/03 10:25:21;;;;;;;1.42;1.27;;;35.40;99.90;;;;;;4937922;29;20382;-86
2022/08/03 10:28:23;;;;;;;1.40;1.00;;;34.60;99.90;;;;;;4933522;29;20048;-87
2022/08/03 10:31:12;;;;;;;1.73;1.10;;;35.00;99.90;;;;;;4932436;29;20694;-88
2022/08/03 10:34:06;;;;;;;1.13;1.00;;;35.30;99.90;;;;;;4938011;29;20052;-88
2022/08/03 10:37:29;;;;;;;;;;;;;;;;;;;;;
2022/08/03 10:41:01;;;;;;;;;;;;;;;;;;;;;
2022/08/03 10:44:08;;;;;;;2.75;0.95;;;35.90;99.90;;;;;;4934136;29;20047;-88
2022/08/03 10:46:58;;;;;;;2.28;1.15;;;35.90;99.90;;;;;;4937076;29;20489;-88
2022/08/03 10:49:47;;;;;;;2.10;1.17;;;36.50;99.90;;;;;;4932873;29;20152;-89
2022/08/03 10:52:36;;;;;;;2.22;1.02;;;37.60;99.90;;;;;;4939076;29;20051;-88
2022/08/03 10:58:41;;;;;;;2.78;1.20;;;37.90;99.90;;;;;;4929327;29;20110;-89
2022/08/03 11:01:55;;;;;;;1.80;1.20;;;37.40;99.90;;;;;;4929389;29;20190;-87
2022/08/03 11:05:08;;;;;;;1.73;1.00;;;37.80;99.90;;;;;;4931324;29;20100;-86
2022/08/03 11:08:17;;;;;;;1.13;1.02;;;38.40;99.90;;;;;;4930309;29;20044;-92
2022/08/03 11:11:19;;;;;;;7.47;1.20;;;38.70;99.90;;;;;;4937969;29;20062;-88
2022/08/03 11:14:12;;;;;;;2.50;1.05;;;38.40;99.90;;;;;;4938097;29;20052;-89
2022/08/03 11:17:08;;;;;;;1.10;0.98;;;38.90;99.90;;;;;;4932402;29;20043;-89
2022/08/03 11:20:04;;;;;;;1.63;1.15;;;39.20;99.90;;;;;;4930324;29;20500;-88
2022/08/03 11:22:56;;;;;;;;;;;39.30;99.90;;;;;;4939265;29;20154;-88
2022/08/03 11:26:11;;;;;;;0.90;0.90;;;40.10;99.90;;;;;;4935003;29;19926;-88
2022/08/03 11:29:30;;;;;;;2.63;0.85;;;40.20;99.90;;;;;;4935992;29;20371;-85
2022/08/03 11:35:42;;;;;;;1.63;1.00;;;40.10;99.90;;;;;;4931241;29;20044;-88
2022/08/03 11:38:29;;;;;;;1.45;0.90;;;39.80;99.90;;;;;;4934222;29;20110;-86
2022/08/03 11:41:33;;;;;;;1.05;0.90;;;40.40;99.90;;;;;;4936238;29;20047;-85
2022/08/03 11:44:43;;;;;;;1.35;0.80;;;40.40;99.90;;;;;;4934904;29;20051;-85
2022/08/03 11:47:36;;;;;;;0.90;0.90;;;40.50;99.90;;;;;;4933227;29;20048;-87
2022/08/03 11:50:37;;;;;;;0.90;0.90;;;40.80;99.90;;;;;;4932583;29;20051;-87
2022/08/03 11:53:24;;;;;;;2.10;1.15;;;39.70;99.90;;;;;;4933408;29;20051;-89
2022/08/03 11:56:11;;;;;;;1.80;0.90;;;39.80;99.90;;;;;;4930744;29;20973;-89
2022/08/03 11:58:59;;;;;;;4.40;1.20;;;39.50;99.90;;;;;;4938490;29;20058;-90
2022/08/03 12:02:12;;;;;;;1.42;1.33;;;38.60;99.90;;;;;;4933907;29;20582;-87
2022/08/03 12:05:04;;;;;;;7.03;1.00;;;38.30;99.90;;;;;;4941076;29;20051;-88
2022/08/03 12:07:52;;;;;;;3.90;1.10;;;39.40;99.90;;;;;;4939467;29;20044;-88
2022/08/03 12:10:55;;;;;;;3.53;1.20;;;40.10;99.90;;;;;;4936333;29;20047;-87
2022/08/03 12:13:50;;;;;;;1.20;1.10;;;40.50;99.90;;;;;;4943874;29;20066;-86
2022/08/03 12:16:57;;;;;;;2.17;1.10;;;39.60;99.90;;;;;;4935691;29;20482;-85
2022/08/03 12:19:44;;;;;;;1.20;1.10;;;40.40;99.90;;;;;;4941089;29;20043;-87
2022/08/03 12:22:37;;;;;;;1.38;1.02;;;40.60;99.90;;;;;;4938646;29;20035;-90
2022/08/03 12:25:30;;;;;;;1.35;1.02;;;40.00;99.90;;;;;;4947132;29;20076;-88
2022/08/03 12:28:25;;;;;;;;;;;40.30;99.90;;;;;;4937943;29;20054;-89
2022/08/03 12:31:23;;;;;;;1.30;1.20;;;38.60;99.90;;;;;;4928713;29;20276;-88
2022/08/03 12:34:12;;;;;;;5.22;1.30;;;37.60;99.90;;;;;;4942845;29;20426;-90
2022/08/03 12:37:04;;;;;;;1.55;1.00;;;38.20;99.90;;;;;;4946319;29;20054;-89
2022/08/03 12:40:09;;;;;;;1.55;1.02;;;39.40;99.90;;;;;;4951435;29;20032;-85
2022/08/03 12:43:11;;;;;;;1.50;1.17;;;38.20;99.90;;;;;;4947694;29;20079;-84
2022/08/03 12:46:13;;;;;;;3.08;0.98;;;39.10;99.90;;;;;;4930112;29;20055;-88
2022/08/03 12:49:02;;;;;;;3.45;1.20;;;40.00;99.90;;;;;;4932714;29;20059;-85
2022/08/03 12:51:49;;;;;;;2.88;0.90;;;39.40;99.90;;;;;;4937395;29;20048;-82
2022/08/03 12:54:38;;;;;;;1.73;0.90;;;38.90;99.90;;;;;;4940109;29;20107;-82
2022/08/03 12:57:41;;;;;;;2.53;0.93;;;39.80;99.90;;;;;;4938831;29;20043;-84
2022/08/03 13:00:29;;;;;;;1.25;1.02;;;40.30;99.90;;;;;;4933775;29;20063;-85
2022/08/03 13:03:18;;;;;;;2.17;1.98;;;41.20;99.90;;;;;;4943620;29;20044;-87
2022/08/03 13:06:25;;;;;;;2.83;1.10;;;40.80;99.90;;;;;;4946454;28;20047;-85
2022/08/03 13:09:12;;;;;;;2.92;1.05;;;40.00;99.90;;;;;;4943196;29;20063;-83
2022/08/03 13:12:08;;;;;;;1.73;1.33;;;39.00;99.90;;;;;;4946906;29;20058;-85
2022/08/03 13:14:58;;;;;;;1.10;1.05;;;38.50;99.90;;;;;;4946028;29;20134;-84
2022/08/03 13:17:45;;;;;;;2.00;1.20;;;38.80;99.90;;;;;;4938158;29;20052;-84
2022/08/03 13:20:33;;;;;;;2.13;1.08;;;39.10;99.90;;;;;;4941939;29;20508;-89
2022/08/03 13:23:24;;;;;;;1.30;1.13;;;40.00;99.90;;;;;;4941326;29;20048;-86
2022/08/03 13:26:11;;;;;;;4.25;1.35;;;39.90;99.90;;;;;;4933910;29;20052;-84
2022/08/03 13:28:58;;;;;;;2.28;1.05;;;39.00;99.90;;;;;;4931811;29;20130;-85
2022/08/03 13:31:46;;;;;;;1.40;1.02;;;40.10;99.90;;;;;;4932890;29;20450;-85
2022/08/03 13:34:37;;;;;;;1.27;1.00;;;41.20;99.90;;;;;;4941653;29;20056;-83
2022/08/03 13:37:25;;;;;;;1.40;1.20;;;41.20;99.90;;;;;;4937413;29;20106;-84
2022/08/03 13:40:13;;;;;;;1.95;1.10;;;41.20;99.90;;;;;;4940271;29;20127;-83
2022/08/03 13:43:00;;;;;;;2.03;1.30;;;39.80;99.90;;;;;;4942992;29;20040;-88
2022/08/03 13:45:48;;;;;;;1.20;1.08;;;39.00;99.90;;;;;;4938925;29;20103;-89
2022/08/03 13:48:45;;;;;;;1.52;1.42;;;38.40;99.90;;;;;;4940019;29;20058;-91
2022/08/03 13:51:34;;;;;;;1.27;1.13;;;38.40;99.90;;;;;;4942423;29;20052;-89
2022/08/03 13:54:23;;;;;;;1.20;1.10;;;38.40;99.90;;;;;;4942059;29;20056;-87
2022/08/03 13:57:11;;;;;;;1.23;1.13;;;38.20;99.90;;;;;;4940816;29;20077;-90
2022/08/03 14:00:22;;;;;;;2.17;0.85;;;37.70;99.90;;;;;;4934946;29;20047;-89
2022/08/03 14:03:16;;;;;;;1.20;1.10;;;37.20;99.90;;;;;;4938850;29;20130;-90
2022/08/03 14:06:04;;;;;;;2.50;1.20;;;38.20;99.90;;;;;;4939306;29;20058;-92
2022/08/03 14:08:51;;;;;;;1.02;0.90;;;39.00;99.90;;;;;;4925698;29;20059;-90
2022/08/03 14:11:39;;;;;;;1.10;1.00;;;39.40;99.90;;;;;;4933405;29;20067;-90
2022/08/03 14:14:47;;;;;;;1.75;0.90;;;39.20;99.90;;;;;;4918119;29;20482;-90
2022/08/03 14:17:34;;;;;;;3.22;1.33;;;38.50;99.90;;;;;;4942713;28;20047;-91
2022/08/03 14:20:45;;;;;;;2.30;1.15;;;38.20;99.90;;;;;;4933521;29;20051;-90
2022/08/03 14:23:40;;;;;;;2.40;1.13;;;37.80;99.90;;;;;;4930034;29;20472;-90
2022/08/03 14:26:29;;;;;;;1.30;1.20;;;38.00;99.90;;;;;;4933645;29;20054;-89
2022/08/03 14:29:16;;;;;;;1.55;1.10;;;38.80;99.90;;;;;;4937018;29;20063;-89
2022/08/03 14:32:03;;;;;;;2.08;1.00;;;39.30;99.90;;;;;;4944208;29;20071;-92
2022/08/03 14:34:58;;;;;;;1.02;1.02;;;39.40;99.90;;;;;;4922552;29;20102;-90
2022/08/03 14:37:46;;;;;;;1.48;1.05;;;40.20;99.90;;;;;;4931303;29;20040;-91
2022/08/03 14:40:37;;;;;;;2.97;1.25;;;39.90;99.90;;;;;;4929257;29;20052;-88
2022/08/03 14:43:25;;;;;;;3.30;1.40;;;40.50;99.90;;;;;;4937961;29;20142;-89
2022/08/03 14:46:20;;;;;;;3.90;1.10;;;40.80;99.90;;;;;;4944349;29;20442;-88
2022/08/03 14:49:07;;;;;;;1.20;1.10;;;41.00;99.90;;;;;;4934364;29;20262;-88
2022/08/03 14:52:14;;;;;;;0.98;0.98;;;40.30;99.90;;;;;;4937431;29;20058;-89
2022/08/03 14:55:04;;;;;;;1.27;1.17;;;40.60;99.90;;;;;;4940059;29;20406;-90
2022/08/03 14:57:51;;;;;;;1.20;1.10;;;40.00;99.90;;;;;;4919938;29;20055;-89
2022/08/03 15:00:38;;;;;;;3.25;1.35;;;39.60;99.90;;;;;;4925556;29;20044;-87
2022/08/03 15:03:26;;;;;;;1.38;1.27;;;39.00;99.90;;;;;;4933237;29;20047;-88
2022/08/03 15:06:13;;;;;;;1.90;1.15;;;39.40;99.90;;;;;;4940099;29;20052;-89
2022/08/03 15:09:00;;;;;;;3.05;1.33;;;39.20;99.90;;;;;;4930472;29;20541;-87
2022/08/03 15:12:12;;;;;;;2.20;1.05;;;39.50;99.90;;;;;;4935957;29;20154;-87
2022/08/03 15:15:02;;;;;;;2.35;1.52;;;38.50;99.90;;;;;;4926356;29;20048;-89
2022/08/03 15:17:50;;;;;;;1.30;1.20;;;38.00;99.90;;;;;;4932522;29;20166;-88
2022/08/03 15:20:49;;;;;;;2.72;1.27;;;37.50;99.90;;;;;;4924561;29;20126;-91